sensor_id;sensor_type;location;lat;lon;timestamp;P1;durP1;ratioP1;P2;durP2;ratioP2
56567;SDS011;42456;49.956;20.004;2023-02-26T00:01:26;15.60;;;7.90;;
56567;SDS011;42456;49.956;20.004;2023-02-26T00:03:56;16.00;;;7.70;;
56567;SDS011;42456;49.956;20.004;2023-02-26T00:06:26;14.70;;;7.40;;
56567;SDS011;42456;49.956;20.004;2023-02-26T00:08:55;15.20;;;7.50;;
56567;SDS011;42456;49.956;20.004;2023-02-26T00:11:22;16.40;;;8.50;;
56567;SDS011;42456;49.956;20.004;2023-02-26T00:13:49;16.70;;;8.40;;
56567;SDS011;42456;49.956;20.004;2023-02-26T00:16:28;16.90;;;8.30;;
56567;SDS011;42456;49.956;20.004;2023-02-26T00:18:57;13.60;;;7.40;;
56567;SDS011;42456;49.956;20.004;2023-02-26T00:21:26;15.90;;;8.10;;
56567;SDS011;42456;49.956;20.004;2023-02-26T00:23:54;17.40;;;8.40;;
56567;SDS011;42456;49.956;20.004;2023-02-26T00:26:22;16.70;;;7.90;;
56567;SDS011;42456;49.956;20.004;2023-02-26T00:28:52;14.90;;;6.90;;
56567;SDS011;42456;49.956;20.004;2023-02-26T00:31:20;11.90;;;6.40;;
56567;SDS011;42456;49.956;20.004;2023-02-26T00:33:51;14.80;;;7.30;;
56567;SDS011;42456;49.956;20.004;2023-02-26T00:41:49;13.60;;;6.70;;
56567;SDS011;42456;49.956;20.004;2023-02-26T00:44:16;11.90;;;5.80;;
56567;SDS011;42456;49.956;20.004;2023-02-26T00:49:41;11.70;;;5.60;;
56567;SDS011;42456;49.956;20.004;2023-02-26T00:54:56;10.90;;;5.20;;
56567;SDS011;42456;49.956;20.004;2023-02-26T00:57:22;10.60;;;5.10;;
56567;SDS011;42456;49.956;20.004;2023-02-26T00:59:49;15.70;;;6.50;;
56567;SDS011;42456;49.956;20.004;2023-02-26T01:02:16;13.20;;;6.40;;
56567;SDS011;42456;49.956;20.004;2023-02-26T01:04:43;11.70;;;6.50;;
56567;SDS011;42456;49.956;20.004;2023-02-26T01:07:12;17.40;;;8.30;;
56567;SDS011;42456;49.956;20.004;2023-02-26T01:09:40;19.10;;;9.10;;
56567;SDS011;42456;49.956;20.004;2023-02-26T01:12:09;19.80;;;9.80;;
56567;SDS011;42456;49.956;20.004;2023-02-26T01:14:38;19.80;;;9.70;;
56567;SDS011;42456;49.956;20.004;2023-02-26T01:19:57;20.10;;;10.10;;
56567;SDS011;42456;49.956;20.004;2023-02-26T01:22:58;19.50;;;10.30;;
56567;SDS011;42456;49.956;20.004;2023-02-26T01:28:13;20.10;;;10.20;;
56567;SDS011;42456;49.956;20.004;2023-02-26T01:30:41;21.90;;;10.80;;
56567;SDS011;42456;49.956;20.004;2023-02-26T01:35:46;17.40;;;8.90;;
56567;SDS011;42456;49.956;20.004;2023-02-26T01:41:08;20.60;;;10.10;;
56567;SDS011;42456;49.956;20.004;2023-02-26T01:43:56;17.70;;;9.80;;
56567;SDS011;42456;49.956;20.004;2023-02-26T01:49:36;17.80;;;9.10;;
56567;SDS011;42456;49.956;20.004;2023-02-26T01:52:04;14.30;;;8.00;;
56567;SDS011;42456;49.956;20.004;2023-02-26T01:57:11;15.00;;;7.70;;
56567;SDS011;42456;49.956;20.004;2023-02-26T01:59:45;14.50;;;7.60;;
56567;SDS011;42456;49.956;20.004;2023-02-26T02:02:16;14.60;;;8.20;;
56567;SDS011;42456;49.956;20.004;2023-02-26T02:04:46;18.50;;;8.50;;
56567;SDS011;42456;49.956;20.004;2023-02-26T02:07:15;13.40;;;7.60;;
56567;SDS011;42456;49.956;20.004;2023-02-26T02:09:43;13.60;;;7.10;;
56567;SDS011;42456;49.956;20.004;2023-02-26T02:12:23;15.30;;;7.50;;
56567;SDS011;42456;49.956;20.004;2023-02-26T02:15:00;15.00;;;7.10;;
56567;SDS011;42456;49.956;20.004;2023-02-26T02:20:16;12.70;;;6.70;;
56567;SDS011;42456;49.956;20.004;2023-02-26T02:22:59;14.00;;;7.80;;
56567;SDS011;42456;49.956;20.004;2023-02-26T02:25:41;14.00;;;7.90;;
56567;SDS011;42456;49.956;20.004;2023-02-26T02:31:52;13.80;;;6.50;;
56567;SDS011;42456;49.956;20.004;2023-02-26T02:39:45;14.80;;;6.90;;
56567;SDS011;42456;49.956;20.004;2023-02-26T02:42:19;14.70;;;7.00;;
56567;SDS011;42456;49.956;20.004;2023-02-26T02:47:53;16.90;;;8.60;;
56567;SDS011;42456;49.956;20.004;2023-02-26T02:50:27;16.70;;;8.40;;
56567;SDS011;42456;49.956;20.004;2023-02-26T02:55:32;18.00;;;9.90;;
56567;SDS011;42456;49.956;20.004;2023-02-26T02:58:06;21.40;;;10.00;;
56567;SDS011;42456;49.956;20.004;2023-02-26T03:00:39;18.50;;;10.30;;
56567;SDS011;42456;49.956;20.004;2023-02-26T03:05:57;21.30;;;10.70;;
56567;SDS011;42456;49.956;20.004;2023-02-26T03:08:28;20.10;;;10.80;;
56567;SDS011;42456;49.956;20.004;2023-02-26T03:11:00;20.50;;;10.30;;
56567;SDS011;42456;49.956;20.004;2023-02-26T03:13:26;20.70;;;11.70;;
56567;SDS011;42456;49.956;20.004;2023-02-26T03:21:20;18.10;;;8.90;;
56567;SDS011;42456;49.956;20.004;2023-02-26T03:26:35;16.20;;;7.70;;
56567;SDS011;42456;49.956;20.004;2023-02-26T03:29:15;16.00;;;7.50;;
56567;SDS011;42456;49.956;20.004;2023-02-26T03:32:02;17.00;;;8.10;;
56567;SDS011;42456;49.956;20.004;2023-02-26T03:34:42;13.60;;;6.70;;
56567;SDS011;42456;49.956;20.004;2023-02-26T03:37:19;14.80;;;7.20;;
56567;SDS011;42456;49.956;20.004;2023-02-26T03:39:55;10.70;;;5.40;;
56567;SDS011;42456;49.956;20.004;2023-02-26T03:42:26;11.90;;;6.70;;
56567;SDS011;42456;49.956;20.004;2023-02-26T03:45:06;11.10;;;5.90;;
56567;SDS011;42456;49.956;20.004;2023-02-26T03:47:40;11.80;;;5.20;;
56567;SDS011;42456;49.956;20.004;2023-02-26T03:50:12;9.60;;;4.70;;
56567;SDS011;42456;49.956;20.004;2023-02-26T03:52:47;12.60;;;6.10;;
56567;SDS011;42456;49.956;20.004;2023-02-26T03:55:20;9.90;;;5.00;;
56567;SDS011;42456;49.956;20.004;2023-02-26T03:57:51;11.80;;;5.40;;
56567;SDS011;42456;49.956;20.004;2023-02-26T04:00:18;11.70;;;4.90;;
56567;SDS011;42456;49.956;20.004;2023-02-26T04:02:52;9.70;;;4.70;;
56567;SDS011;42456;49.956;20.004;2023-02-26T04:05:35;8.50;;;4.20;;
56567;SDS011;42456;49.956;20.004;2023-02-26T04:08:06;8.60;;;4.90;;
56567;SDS011;42456;49.956;20.004;2023-02-26T04:10:44;10.90;;;4.10;;
56567;SDS011;42456;49.956;20.004;2023-02-26T04:13:17;8.80;;;3.80;;
56567;SDS011;42456;49.956;20.004;2023-02-26T04:15:44;8.30;;;4.10;;
56567;SDS011;42456;49.956;20.004;2023-02-26T04:18:11;6.70;;;3.30;;
56567;SDS011;42456;49.956;20.004;2023-02-26T04:20:37;6.40;;;3.50;;
56567;SDS011;42456;49.956;20.004;2023-02-26T04:23:04;6.90;;;3.60;;
56567;SDS011;42456;49.956;20.004;2023-02-26T04:25:31;7.20;;;3.80;;
56567;SDS011;42456;49.956;20.004;2023-02-26T04:27:58;7.10;;;4.00;;
56567;SDS011;42456;49.956;20.004;2023-02-26T04:30:25;7.40;;;4.30;;
56567;SDS011;42456;49.956;20.004;2023-02-26T04:32:52;7.60;;;3.70;;
56567;SDS011;42456;49.956;20.004;2023-02-26T04:35:19;9.20;;;4.00;;
56567;SDS011;42456;49.956;20.004;2023-02-26T04:37:45;7.30;;;4.10;;
56567;SDS011;42456;49.956;20.004;2023-02-26T04:40:12;7.00;;;3.50;;
56567;SDS011;42456;49.956;20.004;2023-02-26T04:42:39;7.00;;;3.40;;
56567;SDS011;42456;49.956;20.004;2023-02-26T04:45:06;5.60;;;2.80;;
56567;SDS011;42456;49.956;20.004;2023-02-26T04:47:34;4.20;;;2.90;;
56567;SDS011;42456;49.956;20.004;2023-02-26T04:50:01;5.20;;;2.80;;
56567;SDS011;42456;49.956;20.004;2023-02-26T04:52:29;5.40;;;3.10;;
56567;SDS011;42456;49.956;20.004;2023-02-26T04:54:56;5.30;;;2.80;;
56567;SDS011;42456;49.956;20.004;2023-02-26T04:57:23;5.00;;;2.60;;
56567;SDS011;42456;49.956;20.004;2023-02-26T04:59:50;8.10;;;3.10;;
56567;SDS011;42456;49.956;20.004;2023-02-26T05:02:17;3.50;;;2.60;;
56567;SDS011;42456;49.956;20.004;2023-02-26T05:04:44;4.40;;;2.90;;
56567;SDS011;42456;49.956;20.004;2023-02-26T05:07:11;6.30;;;3.00;;
56567;SDS011;42456;49.956;20.004;2023-02-26T05:09:38;4.80;;;2.90;;
56567;SDS011;42456;49.956;20.004;2023-02-26T05:12:05;5.80;;;3.60;;
56567;SDS011;42456;49.956;20.004;2023-02-26T05:14:31;8.10;;;3.80;;
56567;SDS011;42456;49.956;20.004;2023-02-26T05:16:58;7.50;;;3.50;;
56567;SDS011;42456;49.956;20.004;2023-02-26T05:19:25;7.70;;;4.00;;
56567;SDS011;42456;49.956;20.004;2023-02-26T05:21:52;7.10;;;3.70;;
56567;SDS011;42456;49.956;20.004;2023-02-26T05:24:19;9.20;;;4.10;;
56567;SDS011;42456;49.956;20.004;2023-02-26T05:26:46;7.40;;;3.90;;
56567;SDS011;42456;49.956;20.004;2023-02-26T05:29:12;8.20;;;3.50;;
56567;SDS011;42456;49.956;20.004;2023-02-26T05:31:39;6.40;;;3.40;;
56567;SDS011;42456;49.956;20.004;2023-02-26T05:34:07;5.10;;;3.20;;
56567;SDS011;42456;49.956;20.004;2023-02-26T05:36:34;5.30;;;3.00;;
56567;SDS011;42456;49.956;20.004;2023-02-26T05:39:01;7.40;;;3.20;;
56567;SDS011;42456;49.956;20.004;2023-02-26T05:41:28;5.20;;;2.90;;
56567;SDS011;42456;49.956;20.004;2023-02-26T05:43:55;8.00;;;3.60;;
56567;SDS011;42456;49.956;20.004;2023-02-26T05:46:22;6.80;;;3.20;;
56567;SDS011;42456;49.956;20.004;2023-02-26T05:48:50;6.00;;;3.60;;
56567;SDS011;42456;49.956;20.004;2023-02-26T05:51:17;5.20;;;3.10;;
56567;SDS011;42456;49.956;20.004;2023-02-26T05:53:44;7.60;;;3.50;;
56567;SDS011;42456;49.956;20.004;2023-02-26T05:56:11;7.00;;;2.80;;
56567;SDS011;42456;49.956;20.004;2023-02-26T05:58:38;9.40;;;3.80;;
56567;SDS011;42456;49.956;20.004;2023-02-26T06:01:05;8.20;;;3.60;;
56567;SDS011;42456;49.956;20.004;2023-02-26T06:03:32;5.40;;;3.00;;
56567;SDS011;42456;49.956;20.004;2023-02-26T06:05:59;6.70;;;3.40;;
56567;SDS011;42456;49.956;20.004;2023-02-26T06:08:25;6.40;;;3.40;;
56567;SDS011;42456;49.956;20.004;2023-02-26T06:10:52;8.70;;;3.60;;
56567;SDS011;42456;49.956;20.004;2023-02-26T06:13:19;7.50;;;3.50;;
56567;SDS011;42456;49.956;20.004;2023-02-26T06:15:48;7.60;;;3.50;;
56567;SDS011;42456;49.956;20.004;2023-02-26T06:18:17;8.70;;;3.70;;
56567;SDS011;42456;49.956;20.004;2023-02-26T06:20:44;7.70;;;3.80;;
56567;SDS011;42456;49.956;20.004;2023-02-26T06:23:11;10.20;;;3.90;;
56567;SDS011;42456;49.956;20.004;2023-02-26T06:25:40;15.40;;;5.80;;
56567;SDS011;42456;49.956;20.004;2023-02-26T06:28:08;11.40;;;4.80;;
56567;SDS011;42456;49.956;20.004;2023-02-26T06:30:34;11.50;;;4.90;;
56567;SDS011;42456;49.956;20.004;2023-02-26T06:33:01;11.80;;;4.00;;
56567;SDS011;42456;49.956;20.004;2023-02-26T06:35:28;10.50;;;4.20;;
56567;SDS011;42456;49.956;20.004;2023-02-26T06:37:55;12.60;;;4.50;;
56567;SDS011;42456;49.956;20.004;2023-02-26T06:40:22;12.10;;;5.60;;
56567;SDS011;42456;49.956;20.004;2023-02-26T06:42:49;10.30;;;4.40;;
56567;SDS011;42456;49.956;20.004;2023-02-26T06:45:16;10.10;;;4.20;;
56567;SDS011;42456;49.956;20.004;2023-02-26T06:47:43;7.60;;;3.40;;
56567;SDS011;42456;49.956;20.004;2023-02-26T06:50:11;7.90;;;4.50;;
56567;SDS011;42456;49.956;20.004;2023-02-26T06:52:38;9.00;;;4.20;;
56567;SDS011;42456;49.956;20.004;2023-02-26T06:55:05;8.80;;;4.50;;
56567;SDS011;42456;49.956;20.004;2023-02-26T06:57:32;8.60;;;3.50;;
56567;SDS011;42456;49.956;20.004;2023-02-26T06:59:59;6.30;;;3.00;;
56567;SDS011;42456;49.956;20.004;2023-02-26T07:02:26;8.70;;;3.40;;
56567;SDS011;42456;49.956;20.004;2023-02-26T07:04:53;6.80;;;4.20;;
56567;SDS011;42456;49.956;20.004;2023-02-26T07:07:20;7.30;;;3.40;;
56567;SDS011;42456;49.956;20.004;2023-02-26T07:09:47;6.20;;;3.00;;
56567;SDS011;42456;49.956;20.004;2023-02-26T07:12:14;8.00;;;3.70;;
56567;SDS011;42456;49.956;20.004;2023-02-26T07:14:42;11.20;;;4.50;;
56567;SDS011;42456;49.956;20.004;2023-02-26T07:17:09;7.60;;;3.80;;
56567;SDS011;42456;49.956;20.004;2023-02-26T07:19:45;8.30;;;4.00;;
56567;SDS011;42456;49.956;20.004;2023-02-26T07:22:17;6.50;;;3.70;;
56567;SDS011;42456;49.956;20.004;2023-02-26T07:24:47;7.90;;;3.70;;
56567;SDS011;42456;49.956;20.004;2023-02-26T07:27:15;7.10;;;3.60;;
56567;SDS011;42456;49.956;20.004;2023-02-26T07:29:42;11.40;;;4.00;;
56567;SDS011;42456;49.956;20.004;2023-02-26T07:32:09;7.80;;;3.50;;
56567;SDS011;42456;49.956;20.004;2023-02-26T07:34:37;8.80;;;4.70;;
56567;SDS011;42456;49.956;20.004;2023-02-26T07:37:04;8.50;;;3.90;;
56567;SDS011;42456;49.956;20.004;2023-02-26T07:39:31;8.00;;;3.30;;
56567;SDS011;42456;49.956;20.004;2023-02-26T07:41:57;5.40;;;3.00;;
56567;SDS011;42456;49.956;20.004;2023-02-26T07:44:24;8.50;;;3.60;;
56567;SDS011;42456;49.956;20.004;2023-02-26T07:46:51;20.20;;;8.10;;
56567;SDS011;42456;49.956;20.004;2023-02-26T07:49:18;17.10;;;6.10;;
56567;SDS011;42456;49.956;20.004;2023-02-26T07:51:45;22.50;;;9.60;;
56567;SDS011;42456;49.956;20.004;2023-02-26T07:54:13;24.80;;;9.80;;
56567;SDS011;42456;49.956;20.004;2023-02-26T07:56:40;21.10;;;7.80;;
56567;SDS011;42456;49.956;20.004;2023-02-26T07:59:08;15.30;;;5.40;;
56567;SDS011;42456;49.956;20.004;2023-02-26T08:01:35;11.50;;;4.80;;
56567;SDS011;42456;49.956;20.004;2023-02-26T08:04:02;10.80;;;4.30;;
56567;SDS011;42456;49.956;20.004;2023-02-26T08:06:30;9.80;;;4.40;;
56567;SDS011;42456;49.956;20.004;2023-02-26T08:08:57;12.00;;;4.90;;
56567;SDS011;42456;49.956;20.004;2023-02-26T08:11:23;7.20;;;3.70;;
56567;SDS011;42456;49.956;20.004;2023-02-26T08:13:50;8.70;;;4.40;;
56567;SDS011;42456;49.956;20.004;2023-02-26T08:16:17;9.80;;;4.60;;
56567;SDS011;42456;49.956;20.004;2023-02-26T08:18:44;9.60;;;4.30;;
56567;SDS011;42456;49.956;20.004;2023-02-26T08:21:11;12.50;;;6.50;;
56567;SDS011;42456;49.956;20.004;2023-02-26T08:23:38;8.10;;;4.40;;
56567;SDS011;42456;49.956;20.004;2023-02-26T08:26:06;5.80;;;3.20;;
56567;SDS011;42456;49.956;20.004;2023-02-26T08:28:34;6.90;;;3.80;;
56567;SDS011;42456;49.956;20.004;2023-02-26T08:31:02;7.40;;;3.80;;
56567;SDS011;42456;49.956;20.004;2023-02-26T08:33:30;6.10;;;3.40;;
56567;SDS011;42456;49.956;20.004;2023-02-26T08:35:58;6.30;;;3.40;;
56567;SDS011;42456;49.956;20.004;2023-02-26T08:38:27;5.30;;;3.20;;
56567;SDS011;42456;49.956;20.004;2023-02-26T08:40:55;7.30;;;3.10;;
56567;SDS011;42456;49.956;20.004;2023-02-26T08:43:23;9.90;;;4.50;;
56567;SDS011;42456;49.956;20.004;2023-02-26T08:45:51;8.20;;;4.60;;
56567;SDS011;42456;49.956;20.004;2023-02-26T08:48:19;11.60;;;4.40;;
56567;SDS011;42456;49.956;20.004;2023-02-26T08:50:46;11.50;;;4.80;;
56567;SDS011;42456;49.956;20.004;2023-02-26T08:53:14;12.40;;;5.20;;
56567;SDS011;42456;49.956;20.004;2023-02-26T08:55:41;9.30;;;4.60;;
56567;SDS011;42456;49.956;20.004;2023-02-26T08:58:10;7.50;;;4.10;;
56567;SDS011;42456;49.956;20.004;2023-02-26T09:00:37;8.30;;;4.10;;
56567;SDS011;42456;49.956;20.004;2023-02-26T09:03:03;5.80;;;2.90;;
56567;SDS011;42456;49.956;20.004;2023-02-26T09:05:30;5.60;;;3.00;;
56567;SDS011;42456;49.956;20.004;2023-02-26T09:07:57;6.10;;;3.00;;
56567;SDS011;42456;49.956;20.004;2023-02-26T09:10:25;5.10;;;2.80;;
56567;SDS011;42456;49.956;20.004;2023-02-26T09:12:51;6.60;;;2.60;;
56567;SDS011;42456;49.956;20.004;2023-02-26T09:15:19;6.70;;;3.30;;
56567;SDS011;42456;49.956;20.004;2023-02-26T09:17:46;8.50;;;3.00;;
56567;SDS011;42456;49.956;20.004;2023-02-26T09:20:13;4.60;;;2.70;;
56567;SDS011;42456;49.956;20.004;2023-02-26T09:22:41;7.50;;;3.90;;
56567;SDS011;42456;49.956;20.004;2023-02-26T09:25:08;6.50;;;3.10;;
56567;SDS011;42456;49.956;20.004;2023-02-26T09:27:35;6.50;;;3.50;;
56567;SDS011;42456;49.956;20.004;2023-02-26T09:30:03;7.60;;;3.50;;
56567;SDS011;42456;49.956;20.004;2023-02-26T09:32:31;7.10;;;3.00;;
56567;SDS011;42456;49.956;20.004;2023-02-26T09:34:59;6.50;;;3.20;;
56567;SDS011;42456;49.956;20.004;2023-02-26T09:37:28;7.60;;;3.60;;
56567;SDS011;42456;49.956;20.004;2023-02-26T09:39:55;8.60;;;4.10;;
56567;SDS011;42456;49.956;20.004;2023-02-26T09:45:11;7.30;;;3.60;;
56567;SDS011;42456;49.956;20.004;2023-02-26T09:47:51;8.20;;;4.40;;
56567;SDS011;42456;49.956;20.004;2023-02-26T09:53:19;9.80;;;5.40;;
56567;SDS011;42456;49.956;20.004;2023-02-26T09:55:50;8.60;;;4.30;;
56567;SDS011;42456;49.956;20.004;2023-02-26T10:01:15;15.50;;;6.20;;
56567;SDS011;42456;49.956;20.004;2023-02-26T10:09:29;10.20;;;4.50;;
56567;SDS011;42456;49.956;20.004;2023-02-26T10:12:07;13.00;;;5.70;;
56567;SDS011;42456;49.956;20.004;2023-02-26T10:14:37;17.20;;;6.70;;
56567;SDS011;42456;49.956;20.004;2023-02-26T10:22:57;9.20;;;4.00;;
56567;SDS011;42456;49.956;20.004;2023-02-26T10:25:30;9.90;;;4.50;;
56567;SDS011;42456;49.956;20.004;2023-02-26T10:28:10;6.20;;;3.20;;
56567;SDS011;42456;49.956;20.004;2023-02-26T10:34:00;5.80;;;2.80;;
56567;SDS011;42456;49.956;20.004;2023-02-26T10:36:36;5.90;;;2.70;;
56567;SDS011;42456;49.956;20.004;2023-02-26T10:39:19;6.60;;;3.30;;
56567;SDS011;42456;49.956;20.004;2023-02-26T10:41:52;5.20;;;2.90;;
56567;SDS011;42456;49.956;20.004;2023-02-26T10:44:27;5.00;;;2.60;;
56567;SDS011;42456;49.956;20.004;2023-02-26T10:49:55;5.70;;;2.90;;
56567;SDS011;42456;49.956;20.004;2023-02-26T10:52:45;4.80;;;2.70;;
56567;SDS011;42456;49.956;20.004;2023-02-26T11:00:39;4.00;;;2.60;;
56567;SDS011;42456;49.956;20.004;2023-02-26T11:03:13;4.70;;;2.40;;
56567;SDS011;42456;49.956;20.004;2023-02-26T11:05:43;2.50;;;2.10;;
56567;SDS011;42456;49.956;20.004;2023-02-26T11:13:26;4.60;;;2.30;;
56567;SDS011;42456;49.956;20.004;2023-02-26T11:15:57;5.00;;;3.00;;
56567;SDS011;42456;49.956;20.004;2023-02-26T11:19:10;3.10;;;2.50;;
56567;SDS011;42456;49.956;20.004;2023-02-26T11:21:25;5.50;;;2.70;;
56567;SDS011;42456;49.956;20.004;2023-02-26T11:27:08;5.00;;;2.60;;
56567;SDS011;42456;49.956;20.004;2023-02-26T11:29:42;8.90;;;4.20;;
56567;SDS011;42456;49.956;20.004;2023-02-26T11:32:18;7.30;;;4.00;;
56567;SDS011;42456;49.956;20.004;2023-02-26T11:34:48;9.00;;;4.20;;
56567;SDS011;42456;49.956;20.004;2023-02-26T11:37:20;15.50;;;6.10;;
56567;SDS011;42456;49.956;20.004;2023-02-26T11:40:33;8.30;;;4.20;;
56567;SDS011;42456;49.956;20.004;2023-02-26T11:42:43;4.60;;;2.70;;
56567;SDS011;42456;49.956;20.004;2023-02-26T11:45:15;6.40;;;3.00;;
56567;SDS011;42456;49.956;20.004;2023-02-26T11:47:45;5.50;;;2.60;;
56567;SDS011;42456;49.956;20.004;2023-02-26T11:50:15;3.30;;;2.10;;
56567;SDS011;42456;49.956;20.004;2023-02-26T11:53:03;4.40;;;2.30;;
56567;SDS011;42456;49.956;20.004;2023-02-26T11:55:37;4.30;;;2.70;;
56567;SDS011;42456;49.956;20.004;2023-02-26T11:58:15;6.10;;;3.40;;
56567;SDS011;42456;49.956;20.004;2023-02-26T12:00:45;7.50;;;3.40;;
56567;SDS011;42456;49.956;20.004;2023-02-26T12:03:17;6.60;;;3.30;;
56567;SDS011;42456;49.956;20.004;2023-02-26T12:05:47;5.50;;;2.60;;
56567;SDS011;42456;49.956;20.004;2023-02-26T12:08:23;4.40;;;2.60;;
56567;SDS011;42456;49.956;20.004;2023-02-26T12:11:01;6.50;;;3.40;;
56567;SDS011;42456;49.956;20.004;2023-02-26T12:19:00;5.60;;;2.90;;
56567;SDS011;42456;49.956;20.004;2023-02-26T12:43:10;3.50;;;2.50;;
56567;SDS011;42456;49.956;20.004;2023-02-26T13:01:34;6.80;;;3.00;;
56567;SDS011;42456;49.956;20.004;2023-02-26T13:05:29;4.10;;;2.70;;
56567;SDS011;42456;49.956;20.004;2023-02-26T13:13:29;6.50;;;3.50;;
56567;SDS011;42456;49.956;20.004;2023-02-26T13:21:24;7.60;;;3.20;;
56567;SDS011;42456;49.956;20.004;2023-02-26T13:24:06;5.40;;;2.80;;
56567;SDS011;42456;49.956;20.004;2023-02-26T13:26:38;6.50;;;3.20;;
56567;SDS011;42456;49.956;20.004;2023-02-26T13:29:18;6.20;;;3.10;;
56567;SDS011;42456;49.956;20.004;2023-02-26T13:31:52;7.20;;;3.10;;
56567;SDS011;42456;49.956;20.004;2023-02-26T13:34:29;5.00;;;3.00;;
56567;SDS011;42456;49.956;20.004;2023-02-26T13:37:03;7.20;;;3.10;;
56567;SDS011;42456;49.956;20.004;2023-02-26T13:47:55;7.80;;;3.70;;
56567;SDS011;42456;49.956;20.004;2023-02-26T13:50:41;8.80;;;4.00;;
56567;SDS011;42456;49.956;20.004;2023-02-26T13:56:04;7.30;;;3.60;;
56567;SDS011;42456;49.956;20.004;2023-02-26T13:58:39;7.60;;;3.60;;
56567;SDS011;42456;49.956;20.004;2023-02-26T14:01:12;8.60;;;3.10;;
56567;SDS011;42456;49.956;20.004;2023-02-26T14:06:24;5.60;;;3.10;;
56567;SDS011;42456;49.956;20.004;2023-02-26T14:09:04;5.90;;;3.30;;
56567;SDS011;42456;49.956;20.004;2023-02-26T14:19:33;6.00;;;3.00;;
56567;SDS011;42456;49.956;20.004;2023-02-26T14:24:53;6.60;;;3.40;;
56567;SDS011;42456;49.956;20.004;2023-02-26T14:27:22;7.00;;;2.90;;
56567;SDS011;42456;49.956;20.004;2023-02-26T14:37:44;7.50;;;3.00;;
56567;SDS011;42456;49.956;20.004;2023-02-26T14:40:24;6.60;;;3.00;;
56567;SDS011;42456;49.956;20.004;2023-02-26T14:42:58;7.10;;;3.20;;
56567;SDS011;42456;49.956;20.004;2023-02-26T14:45:31;6.40;;;3.00;;
56567;SDS011;42456;49.956;20.004;2023-02-26T14:47:59;4.80;;;2.80;;
56567;SDS011;42456;49.956;20.004;2023-02-26T14:50:37;6.80;;;3.20;;
56567;SDS011;42456;49.956;20.004;2023-02-26T14:56:06;4.30;;;2.50;;
56567;SDS011;42456;49.956;20.004;2023-02-26T15:09:55;7.80;;;3.20;;
56567;SDS011;42456;49.956;20.004;2023-02-26T15:12:30;8.50;;;3.10;;
56567;SDS011;42456;49.956;20.004;2023-02-26T15:25:49;8.20;;;4.10;;
56567;SDS011;42456;49.956;20.004;2023-02-26T15:28:22;7.60;;;3.60;;
56567;SDS011;42456;49.956;20.004;2023-02-26T15:30:53;7.90;;;3.20;;
56567;SDS011;42456;49.956;20.004;2023-02-26T15:33:22;10.80;;;4.20;;
56567;SDS011;42456;49.956;20.004;2023-02-26T15:35:50;8.30;;;3.90;;
56567;SDS011;42456;49.956;20.004;2023-02-26T15:38:19;9.90;;;3.70;;
56567;SDS011;42456;49.956;20.004;2023-02-26T15:40:46;7.20;;;3.20;;
56567;SDS011;42456;49.956;20.004;2023-02-26T15:45:47;7.20;;;3.10;;
56567;SDS011;42456;49.956;20.004;2023-02-26T15:50:54;8.20;;;3.30;;
56567;SDS011;42456;49.956;20.004;2023-02-26T15:56:06;9.20;;;3.60;;
56567;SDS011;42456;49.956;20.004;2023-02-26T15:58:41;5.00;;;3.00;;
56567;SDS011;42456;49.956;20.004;2023-02-26T16:01:15;7.30;;;3.40;;
56567;SDS011;42456;49.956;20.004;2023-02-26T16:03:44;7.10;;;3.10;;
56567;SDS011;42456;49.956;20.004;2023-02-26T16:06:14;4.80;;;2.60;;
56567;SDS011;42456;49.956;20.004;2023-02-26T16:08:45;6.60;;;3.10;;
56567;SDS011;42456;49.956;20.004;2023-02-26T16:11:12;5.40;;;3.10;;
56567;SDS011;42456;49.956;20.004;2023-02-26T16:13:41;7.10;;;3.50;;
56567;SDS011;42456;49.956;20.004;2023-02-26T16:16:14;5.60;;;3.00;;
56567;SDS011;42456;49.956;20.004;2023-02-26T16:18:47;7.60;;;3.20;;
56567;SDS011;42456;49.956;20.004;2023-02-26T16:21:18;6.40;;;3.30;;
56567;SDS011;42456;49.956;20.004;2023-02-26T16:23:56;5.10;;;2.70;;
56567;SDS011;42456;49.956;20.004;2023-02-26T16:26:48;6.40;;;3.00;;
56567;SDS011;42456;49.956;20.004;2023-02-26T16:29:22;5.50;;;3.00;;
56567;SDS011;42456;49.956;20.004;2023-02-26T16:36:53;7.10;;;3.20;;
56567;SDS011;42456;49.956;20.004;2023-02-26T16:39:22;7.40;;;3.50;;
56567;SDS011;42456;49.956;20.004;2023-02-26T16:42:00;10.50;;;4.40;;
56567;SDS011;42456;49.956;20.004;2023-02-26T16:44:35;8.50;;;3.90;;
56567;SDS011;42456;49.956;20.004;2023-02-26T16:47:09;7.70;;;3.80;;
56567;SDS011;42456;49.956;20.004;2023-02-26T16:49:36;9.40;;;4.10;;
56567;SDS011;42456;49.956;20.004;2023-02-26T16:52:07;7.60;;;3.70;;
56567;SDS011;42456;49.956;20.004;2023-02-26T16:54:40;9.40;;;4.40;;
56567;SDS011;42456;49.956;20.004;2023-02-26T16:57:17;10.70;;;5.20;;
56567;SDS011;42456;49.956;20.004;2023-02-26T16:59:50;18.50;;;7.20;;
56567;SDS011;42456;49.956;20.004;2023-02-26T17:02:25;8.40;;;4.20;;
56567;SDS011;42456;49.956;20.004;2023-02-26T17:04:58;10.70;;;4.40;;
56567;SDS011;42456;49.956;20.004;2023-02-26T17:07:35;7.60;;;3.90;;
56567;SDS011;42456;49.956;20.004;2023-02-26T17:10:20;10.30;;;4.60;;
56567;SDS011;42456;49.956;20.004;2023-02-26T17:13:00;9.30;;;4.00;;
56567;SDS011;42456;49.956;20.004;2023-02-26T17:15:35;10.00;;;4.50;;
56567;SDS011;42456;49.956;20.004;2023-02-26T17:18:04;13.30;;;5.10;;
56567;SDS011;42456;49.956;20.004;2023-02-26T17:20:31;13.10;;;4.70;;
56567;SDS011;42456;49.956;20.004;2023-02-26T17:22:59;11.40;;;5.00;;
56567;SDS011;42456;49.956;20.004;2023-02-26T17:25:37;9.80;;;4.50;;
56567;SDS011;42456;49.956;20.004;2023-02-26T17:28:08;9.80;;;4.30;;
56567;SDS011;42456;49.956;20.004;2023-02-26T17:30:41;9.40;;;4.40;;
56567;SDS011;42456;49.956;20.004;2023-02-26T17:33:08;10.00;;;4.30;;
56567;SDS011;42456;49.956;20.004;2023-02-26T17:35:38;9.50;;;3.80;;
56567;SDS011;42456;49.956;20.004;2023-02-26T17:38:10;8.40;;;4.10;;
56567;SDS011;42456;49.956;20.004;2023-02-26T17:40:39;8.70;;;4.20;;
56567;SDS011;42456;49.956;20.004;2023-02-26T17:43:07;8.70;;;4.30;;
56567;SDS011;42456;49.956;20.004;2023-02-26T17:45:35;9.90;;;4.70;;
56567;SDS011;42456;49.956;20.004;2023-02-26T17:48:05;11.60;;;4.30;;
56567;SDS011;42456;49.956;20.004;2023-02-26T17:50:35;8.70;;;4.00;;
56567;SDS011;42456;49.956;20.004;2023-02-26T17:53:07;10.30;;;4.00;;
56567;SDS011;42456;49.956;20.004;2023-02-26T17:55:35;6.90;;;3.90;;
56567;SDS011;42456;49.956;20.004;2023-02-26T17:58:26;11.30;;;4.40;;
56567;SDS011;42456;49.956;20.004;2023-02-26T18:00:54;8.50;;;4.00;;
56567;SDS011;42456;49.956;20.004;2023-02-26T18:03:22;8.60;;;4.40;;
56567;SDS011;42456;49.956;20.004;2023-02-26T18:05:49;11.90;;;5.20;;
56567;SDS011;42456;49.956;20.004;2023-02-26T18:08:28;11.50;;;4.50;;
56567;SDS011;42456;49.956;20.004;2023-02-26T18:10:57;8.80;;;4.20;;
56567;SDS011;42456;49.956;20.004;2023-02-26T18:13:25;9.40;;;4.40;;
56567;SDS011;42456;49.956;20.004;2023-02-26T18:15:53;11.40;;;4.60;;
56567;SDS011;42456;49.956;20.004;2023-02-26T18:20:51;10.80;;;4.20;;
56567;SDS011;42456;49.956;20.004;2023-02-26T18:23:18;9.20;;;4.50;;
56567;SDS011;42456;49.956;20.004;2023-02-26T18:25:46;11.70;;;5.30;;
56567;SDS011;42456;49.956;20.004;2023-02-26T18:28:16;11.30;;;4.80;;
56567;SDS011;42456;49.956;20.004;2023-02-26T18:30:48;10.90;;;4.70;;
56567;SDS011;42456;49.956;20.004;2023-02-26T18:33:17;11.90;;;5.40;;